createdAt,value
2018-11-22T00:00:58.612Z,72.22
2018-11-22T00:03:26.999Z,72.28
2018-11-22T00:08:48.894Z,71.40
2018-11-22T00:11:17.228Z,71.52
2018-11-22T00:13:45.590Z,71.91
2018-11-22T00:16:14.010Z,71.27
2018-11-22T00:18:42.762Z,72.44
2018-11-22T00:21:31.846Z,71.72
2018-11-22T00:24:00.573Z,72.08
2018-11-22T00:26:29.341Z,72.07
2018-11-22T00:28:58.192Z,71.46
2018-11-22T00:31:26.499Z,71.29
2018-11-22T00:33:55.095Z,71.92
2018-11-22T00:37:01.081Z,72.02
2018-11-22T00:39:30.113Z,71.85
2018-11-22T00:41:58.562Z,72.54
2018-11-22T00:44:26.902Z,73.31
2018-11-22T00:46:55.871Z,73.03
2018-11-22T00:49:43.385Z,72.04
2018-11-22T00:52:11.833Z,71.82
2018-11-22T00:54:40.185Z,71.87
2018-11-22T00:57:27.594Z,71.40
2018-11-22T00:59:55.920Z,71.73
2018-11-22T01:02:24.649Z,71.34
2018-11-22T01:04:53.030Z,70.66
2018-11-22T01:07:21.689Z,71.18
2018-11-22T01:09:50.002Z,71.33
2018-11-22T01:17:40.696Z,71.02
2018-11-22T01:20:10.634Z,71.85
2018-11-22T01:22:39.044Z,71.43
2018-11-22T01:25:26.332Z,71.58
2018-11-22T01:28:13.629Z,71.91
2018-11-22T01:31:01.152Z,72.15
2018-11-22T01:33:48.778Z,70.93
2018-11-22T01:36:35.836Z,70.87
2018-11-22T01:39:04.606Z,71.58
2018-11-22T01:41:32.941Z,71.87
2018-11-22T01:44:20.394Z,72.46
2018-11-22T01:49:23.501Z,72.55
2018-11-22T01:51:52.530Z,72.17
2018-11-22T01:54:21.622Z,72.52
2018-11-22T01:57:09.102Z,72.70
2018-11-22T01:59:37.498Z,71.39
2018-11-22T02:02:25.048Z,71.60
2018-11-22T02:04:53.735Z,71.77
2018-11-22T02:07:22.120Z,71.20
2018-11-22T02:09:50.747Z,71.40
2018-11-22T02:12:19.312Z,71.52
2018-11-22T02:15:06.568Z,71.31
2018-11-22T02:17:54.198Z,73.03
2018-11-22T02:20:41.495Z,71.77
2018-11-22T02:23:09.836Z,71.48
2018-11-22T02:28:44.977Z,71.53
2018-11-22T02:31:32.536Z,72.11
2018-11-22T02:34:01.526Z,71.46
2018-11-22T02:36:29.878Z,71.60
2018-11-22T02:38:58.297Z,72.25
2018-11-22T02:41:26.691Z,71.64
2018-11-22T02:43:55.040Z,71.41
2018-11-22T02:46:23.717Z,71.67
2018-11-22T02:49:11.183Z,72.04
2018-11-22T02:51:39.573Z,72.83
2018-11-22T02:54:07.941Z,72.27
2018-11-22T02:56:36.305Z,72.15
2018-11-22T02:59:04.636Z,71.30
2018-11-22T03:01:51.737Z,71.58
2018-11-22T03:04:39.398Z,71.58
2018-11-22T03:07:08.112Z,71.54
2018-11-22T03:09:36.834Z,72.26
2018-11-22T03:12:05.231Z,70.91
2018-11-22T03:14:33.903Z,71.63
2018-11-22T03:17:02.610Z,71.90
2018-11-22T03:19:31.199Z,71.24
2018-11-22T03:21:59.540Z,71.52
2018-11-22T03:27:20.700Z,71.47
2018-11-22T03:29:49.084Z,72.59
2018-11-22T03:32:36.403Z,71.56
2018-11-22T03:35:25.156Z,71.38
2018-11-22T03:37:53.578Z,71.82
2018-11-22T03:40:23.473Z,71.72
2018-11-22T03:42:52.186Z,72.09
2018-11-22T03:45:39.444Z,72.08
2018-11-22T03:53:49.040Z,72.66
2018-11-22T03:56:17.633Z,71.62
2018-11-22T03:58:45.977Z,72.10
2018-11-22T04:01:21.312Z,71.79
2018-11-22T04:03:50.078Z,71.96
2018-11-22T04:06:37.133Z,72.23
2018-11-22T04:09:08.956Z,72.30
2018-11-22T04:11:37.306Z,72.21
2018-11-22T04:14:05.907Z,72.96
2018-11-22T04:19:08.030Z,72.27
2018-11-22T04:21:55.393Z,72.76
2018-11-22T04:24:42.632Z,71.91
2018-11-22T04:27:11.027Z,71.85
2018-11-22T04:29:39.663Z,72.43
2018-11-22T04:32:08.065Z,72.33
2018-11-22T04:34:55.520Z,72.20
2018-11-22T04:37:24.222Z,72.99
2018-11-22T04:40:13.053Z,71.53
2018-11-22T04:43:00.457Z,72.79
2018-11-22T04:45:28.891Z,72.43
2018-11-22T04:50:52.456Z,72.60
2018-11-22T04:53:21.129Z,72.41
2018-11-22T04:58:37.689Z,72.34
2018-11-22T05:03:54.041Z,72.75
2018-11-22T05:06:22.735Z,71.99
2018-11-22T05:08:52.489Z,72.63
2018-11-22T05:11:21.116Z,72.96
2018-11-22T05:13:49.549Z,72.83
2018-11-22T05:16:17.922Z,72.65
2018-11-22T05:18:46.291Z,72.10
2018-11-22T05:24:21.077Z,73.41
2018-11-22T05:27:08.213Z,73.10
2018-11-22T05:29:36.915Z,73.25
2018-11-22T05:32:05.308Z,73.12
2018-11-22T05:34:34.051Z,72.59
2018-11-22T05:37:21.579Z,73.58
2018-11-22T05:39:49.939Z,73.77
2018-11-22T05:42:18.471Z,74.66
2018-11-22T05:44:46.834Z,73.81
2018-11-22T05:50:03.081Z,74.02
2018-11-22T05:52:31.754Z,73.98
2018-11-22T05:55:18.862Z,73.74
2018-11-22T05:57:47.819Z,73.70
2018-11-22T06:00:38.475Z,73.76
2018-11-22T06:03:06.835Z,73.25
2018-11-22T06:05:35.968Z,73.12
2018-11-22T06:08:04.544Z,73.28
2018-11-22T06:18:30.677Z,72.68
2018-11-22T06:21:18.166Z,72.36
2018-11-22T06:24:05.458Z,72.40
2018-11-22T06:26:52.772Z,73.39
2018-11-22T06:29:40.081Z,73.97
2018-11-22T06:32:08.509Z,72.90
2018-11-22T06:40:03.990Z,73.32
2018-11-22T06:49:10.386Z,72.44
2018-11-22T06:51:57.685Z,73.68
2018-11-22T06:54:26.772Z,74.05
2018-11-22T06:57:13.847Z,72.36
2018-11-22T07:00:00.915Z,72.88
2018-11-22T07:02:48.885Z,72.49
2018-11-22T07:05:18.537Z,72.63
2018-11-22T07:08:05.678Z,73.19
2018-11-22T07:10:34.472Z,72.67
2018-11-22T07:13:21.748Z,72.08
2018-11-22T07:16:09.092Z,72.17
2018-11-22T07:18:37.405Z,71.00
2018-11-22T07:21:06.053Z,70.67
2018-11-22T07:23:53.400Z,71.08
2018-11-22T07:26:21.779Z,71.01
2018-11-22T07:28:50.723Z,70.79
2018-11-22T07:31:19.048Z,69.47
2018-11-22T07:33:47.349Z,70.13
2018-11-22T07:36:15.683Z,69.87
2018-11-22T07:38:44.052Z,70.64
2018-11-22T07:41:12.462Z,70.19
2018-11-22T07:43:40.905Z,70.49
2018-11-22T07:46:09.705Z,69.26
2018-11-22T07:48:56.794Z,68.99
2018-11-22T07:51:25.100Z,68.98
2018-11-22T07:56:27.254Z,69.07
2018-11-22T07:58:55.619Z,68.86
2018-11-22T08:01:24.128Z,69.31
2018-11-22T08:04:11.886Z,68.40
2018-11-22T08:06:59.161Z,68.48
2018-11-22T08:09:28.151Z,68.22
2018-11-22T08:11:56.806Z,69.16
2018-11-22T08:14:44.041Z,69.00
2018-11-22T08:17:31.295Z,68.63
2018-11-22T08:19:59.783Z,67.78
2018-11-22T08:22:28.152Z,67.62
2018-11-22T08:25:16.683Z,68.30
2018-11-22T08:27:45.410Z,67.21
2018-11-22T08:30:15.080Z,67.61
2018-11-22T08:33:02.353Z,66.81
2018-11-22T08:35:31.202Z,66.31
2018-11-22T08:38:18.463Z,66.17
2018-11-22T08:43:21.655Z,64.01
2018-11-22T08:45:50.355Z,64.04
2018-11-22T08:48:37.644Z,63.47
2018-11-22T08:51:25.026Z,62.08
2018-11-22T08:53:54.096Z,62.13
2018-11-22T08:56:41.285Z,61.59
2018-11-22T08:59:28.604Z,60.42
2018-11-22T09:01:57.280Z,62.11
2018-11-22T09:06:53.240Z,60.92
2018-11-22T09:09:40.857Z,61.27
2018-11-22T09:12:09.173Z,61.10
2018-11-22T09:14:38.289Z,60.83
2018-11-22T09:17:25.401Z,61.82
2018-11-22T09:19:54.398Z,61.79
2018-11-22T09:22:22.758Z,61.01
2018-11-22T09:24:51.155Z,61.56
2018-11-22T09:27:19.534Z,62.06
2018-11-22T09:29:47.837Z,61.56
2018-11-22T09:32:34.960Z,61.71
2018-11-22T09:35:03.533Z,61.19
2018-11-22T09:37:31.987Z,61.68
2018-11-22T09:40:00.850Z,61.35
2018-11-22T09:42:29.221Z,61.24
2018-11-22T09:44:57.784Z,61.61
2018-11-22T09:47:26.415Z,62.46
2018-11-22T09:49:55.020Z,61.86
2018-11-22T09:52:23.493Z,63.45
2018-11-22T09:55:10.586Z,61.51
2018-11-22T09:57:39.274Z,61.95
2018-11-22T10:00:12.211Z,61.63
2018-11-22T10:02:59.779Z,61.49
2018-11-22T10:05:29.592Z,62.58
2018-11-22T10:08:16.811Z,62.93
2018-11-22T10:10:45.547Z,61.32
2018-11-22T10:13:13.866Z,61.23
2018-11-22T10:16:01.173Z,61.26
2018-11-22T10:18:48.238Z,60.99
2018-11-22T10:21:16.593Z,61.80
2018-11-22T10:24:04.030Z,61.70
2018-11-22T10:26:32.514Z,61.17
2018-11-22T10:29:01.176Z,61.42
2018-11-22T10:34:18.113Z,60.30
2018-11-22T10:37:05.369Z,61.25
2018-11-22T10:39:33.912Z,61.72
2018-11-22T10:42:02.267Z,61.64
2018-11-22T10:44:49.367Z,61.01
2018-11-22T10:47:36.435Z,60.56
2018-11-22T10:50:05.222Z,60.53
2018-11-22T10:52:52.829Z,59.76
2018-11-22T10:55:40.013Z,59.84
2018-11-22T10:58:08.636Z,59.80
2018-11-22T11:00:55.751Z,60.07
2018-11-22T11:04:01.875Z,60.30
2018-11-22T11:06:49.333Z,60.29
2018-11-22T11:09:36.593Z,60.32
2018-11-22T11:12:25.561Z,59.89
2018-11-22T11:14:52.955Z,59.57
2018-11-22T11:17:21.276Z,58.59
2018-11-22T11:19:49.601Z,59.01
2018-11-22T11:22:18.306Z,58.38
2018-11-22T11:24:46.654Z,59.65
2018-11-22T11:27:15.236Z,58.47
2018-11-22T11:29:43.629Z,56.69
2018-11-22T11:32:30.922Z,56.93
2018-11-22T11:34:59.275Z,56.10
2018-11-22T11:37:27.624Z,55.79
2018-11-22T11:40:00.631Z,56.58
2018-11-22T11:42:24.410Z,55.77
2018-11-22T11:50:16.466Z,52.72
2018-11-22T11:52:44.893Z,51.73
2018-11-22T11:55:32.182Z,51.04
2018-11-22T11:58:19.314Z,49.88
2018-11-22T12:01:06.575Z,49.09
2018-11-22T12:08:44.286Z,46.49
2018-11-22T12:11:12.612Z,44.50
2018-11-22T12:13:41.045Z,43.25
2018-11-22T12:16:09.403Z,40.71
2018-11-22T12:18:37.737Z,38.78
2018-11-22T12:21:06.335Z,38.92
2018-11-22T12:23:34.687Z,38.54
2018-11-22T12:26:22.278Z,37.28
2018-11-22T12:28:50.597Z,36.48
2018-11-22T12:31:18.939Z,34.91
2018-11-22T12:34:06.134Z,33.39
2018-11-22T12:36:53.206Z,31.74
2018-11-22T12:39:40.616Z,30.71
2018-11-22T12:42:28.165Z,30.61
2018-11-22T12:45:15.427Z,28.27
2018-11-22T12:47:44.178Z,28.20
2018-11-22T12:50:31.649Z,28.07
2018-11-22T12:53:00.036Z,28.04
2018-11-22T12:55:28.663Z,27.12
2018-11-22T13:00:50.568Z,27.49
2018-11-22T13:06:26.070Z,26.60
2018-11-22T13:11:28.943Z,29.06
2018-11-22T13:14:16.199Z,28.70
2018-11-22T13:16:44.905Z,28.08
2018-11-22T13:19:13.607Z,27.94
2018-11-22T13:21:42.011Z,27.41
2018-11-22T13:24:29.412Z,25.89
2018-11-22T13:26:58.009Z,26.84
2018-11-22T13:32:00.950Z,26.31
2018-11-22T13:34:29.706Z,25.76
2018-11-22T13:39:45.923Z,26.18
2018-11-22T13:42:14.593Z,27.79
2018-11-22T13:44:43.260Z,27.20
2018-11-22T13:47:11.950Z,27.54
2018-11-22T13:49:59.202Z,26.30
2018-11-22T13:52:27.606Z,26.08
2018-11-22T13:54:56.198Z,24.77
2018-11-22T13:57:24.734Z,26.33
2018-11-22T14:00:11.781Z,26.78
2018-11-22T14:05:15.668Z,25.84
2018-11-22T14:07:44.014Z,26.26
2018-11-22T14:10:16.729Z,26.31
2018-11-22T14:12:45.387Z,27.06
2018-11-22T14:15:15.592Z,28.00
2018-11-22T14:18:04.531Z,28.47
2018-11-22T14:23:40.286Z,30.34
2018-11-22T14:26:27.359Z,32.83
2018-11-22T14:28:55.839Z,36.27
2018-11-22T14:31:24.633Z,37.27
2018-11-22T14:33:53.222Z,38.64
2018-11-22T14:36:40.499Z,39.04
2018-11-22T14:39:09.053Z,38.94
2018-11-22T14:41:56.117Z,37.11
2018-11-22T14:46:59.387Z,36.48
2018-11-22T14:49:46.943Z,35.83
2018-11-22T14:52:15.486Z,37.38
2018-11-22T14:54:43.887Z,39.50
2018-11-22T14:57:12.358Z,41.56
2018-11-22T14:59:40.767Z,43.40
2018-11-22T15:02:28.211Z,45.55
2018-11-22T15:05:15.906Z,47.46
2018-11-22T15:07:44.654Z,48.27
2018-11-22T15:10:33.048Z,49.74
2018-11-22T15:15:49.217Z,52.19
2018-11-22T15:18:36.520Z,53.57
2018-11-22T15:23:39.069Z,55.11
2018-11-22T15:26:26.523Z,55.77
2018-11-22T15:28:56.213Z,56.49
2018-11-22T15:31:24.608Z,57.05
2018-11-22T15:34:11.899Z,58.08
2018-11-22T15:36:40.845Z,59.35
2018-11-22T15:39:10.355Z,60.41
2018-11-22T15:42:16.710Z,60.64
2018-11-22T15:47:52.430Z,61.14
2018-11-22T15:50:22.109Z,61.45
2018-11-22T15:52:50.738Z,62.73
2018-11-22T15:55:21.173Z,62.74
2018-11-22T15:57:49.029Z,63.55
2018-11-22T16:00:36.821Z,63.86
2018-11-22T16:03:24.432Z,64.81
2018-11-22T16:05:53.176Z,65.35
2018-11-22T16:08:21.748Z,66.21
2018-11-22T16:10:50.102Z,65.17
2018-11-22T16:13:18.429Z,66.17
2018-11-22T16:16:05.749Z,66.53
2018-11-22T16:21:08.660Z,65.28
2018-11-22T16:23:37.366Z,66.91
2018-11-22T16:26:05.820Z,66.57
2018-11-22T16:28:34.494Z,66.86
2018-11-22T16:31:03.119Z,66.65
2018-11-22T16:33:31.699Z,66.97
2018-11-22T16:36:18.767Z,68.06
2018-11-22T16:38:47.135Z,67.12
2018-11-22T16:41:15.909Z,66.98
2018-11-22T16:43:44.274Z,66.74
2018-11-22T16:46:12.772Z,67.08
2018-11-22T16:48:41.125Z,67.54
2018-11-22T16:51:28.233Z,67.81
2018-11-22T16:54:15.886Z,68.73
2018-11-22T16:56:44.570Z,68.81
2018-11-22T16:59:12.924Z,67.87
2018-11-22T17:04:15.498Z,67.99
2018-11-22T17:09:18.370Z,68.65
2018-11-22T17:11:47.150Z,68.21
2018-11-22T17:14:15.716Z,68.85
2018-11-22T17:16:44.071Z,68.25
2018-11-22T17:19:12.373Z,68.88
2018-11-22T17:21:40.746Z,69.22
2018-11-22T17:24:28.080Z,69.81
2018-11-22T17:26:56.387Z,70.31
2018-11-22T17:29:24.724Z,70.49
2018-11-22T17:31:53.080Z,70.56
2018-11-22T17:34:21.437Z,71.50
2018-11-22T17:42:35.320Z,72.71
2018-11-22T17:45:03.692Z,73.37
2018-11-22T17:47:32.077Z,73.42
2018-11-22T17:50:00.373Z,73.91
2018-11-22T17:52:28.913Z,74.11
2018-11-22T17:54:57.635Z,74.74
2018-11-22T17:57:26.305Z,74.89
2018-11-22T18:00:14.846Z,74.72
2018-11-22T18:05:37.254Z,75.09
2018-11-22T18:08:05.671Z,76.16
2018-11-22T18:10:35.543Z,76.20
2018-11-22T18:13:03.926Z,76.14
2018-11-22T18:16:09.964Z,76.37
2018-11-22T18:21:12.692Z,77.34
2018-11-22T18:23:41.079Z,78.11
2018-11-22T18:26:28.359Z,78.54
2018-11-22T18:31:49.826Z,78.66
2018-11-22T18:34:18.348Z,78.65
2018-11-22T18:36:46.772Z,78.82
2018-11-22T18:39:34.339Z,79.02
2018-11-22T18:47:50.934Z,79.46
2018-11-22T18:50:38.045Z,80.42
2018-11-22T18:53:06.604Z,80.61
2018-11-22T18:55:35.266Z,80.48
2018-11-22T18:58:03.894Z,80.64
2018-11-22T19:03:09.501Z,80.58
2018-11-22T19:05:38.003Z,80.91
2018-11-22T19:08:25.566Z,80.62
2018-11-22T19:10:54.059Z,80.83
2018-11-22T19:13:41.354Z,81.91
2018-11-22T19:16:09.729Z,82.74
2018-11-22T19:18:38.076Z,82.89
2018-11-22T19:21:06.653Z,82.98
2018-11-22T19:26:41.926Z,82.48
2018-11-22T19:29:29.449Z,83.17
2018-11-22T19:32:16.606Z,83.77
2018-11-22T19:37:33.937Z,84.04
2018-11-22T19:40:02.636Z,84.00
2018-11-22T19:42:31.016Z,84.33
2018-11-22T19:44:59.445Z,84.90
2018-11-22T19:47:28.511Z,85.12
2018-11-22T19:50:17.013Z,85.20
2018-11-22T19:53:04.227Z,85.38
2018-11-22T19:55:51.502Z,84.96
2018-11-22T19:58:38.567Z,84.81
2018-11-22T20:01:25.706Z,84.91
2018-11-22T20:03:54.113Z,85.09
2018-11-22T20:08:57.241Z,85.44
2018-11-22T20:11:26.010Z,85.85
2018-11-22T20:14:13.394Z,86.44
2018-11-22T20:16:42.613Z,86.29
2018-11-22T20:19:29.706Z,87.00
2018-11-22T20:22:16.829Z,87.66
2018-11-22T20:24:45.469Z,88.56
2018-11-22T20:27:13.803Z,88.98
2018-11-22T20:29:42.377Z,89.03
2018-11-22T20:32:10.701Z,89.29
2018-11-22T20:34:39.416Z,89.15
2018-11-22T20:37:07.898Z,89.36
2018-11-22T20:42:23.829Z,89.33
2018-11-22T20:45:11.642Z,89.62
2018-11-22T20:47:59.007Z,89.80
2018-11-22T20:50:46.153Z,89.82
2018-11-22T20:53:15.036Z,90.39
2018-11-22T20:55:43.334Z,90.98
2018-11-22T20:58:30.604Z,91.55
2018-11-22T21:01:17.930Z,92.05
2018-11-22T21:03:46.359Z,91.92
2018-11-22T21:06:14.786Z,91.75
2018-11-22T21:08:48.494Z,91.50
2018-11-22T21:11:11.542Z,91.69
2018-11-22T21:13:58.679Z,91.76
2018-11-22T21:16:27.398Z,92.22
2018-11-22T21:18:55.941Z,92.45
2018-11-22T21:21:24.653Z,92.32
2018-11-22T21:23:53.304Z,92.58
2018-11-22T21:26:21.976Z,92.89
2018-11-22T21:31:44.413Z,93.90
2018-11-22T21:34:31.706Z,93.88
2018-11-22T21:37:00.485Z,94.03
2018-11-22T21:39:47.559Z,94.30
2018-11-22T21:42:15.947Z,94.76
2018-11-22T21:44:44.696Z,94.82
2018-11-22T21:47:13.044Z,93.94
2018-11-22T21:49:41.433Z,93.47
2018-11-22T21:52:28.727Z,93.16
2018-11-22T21:54:57.075Z,93.42
2018-11-22T21:57:25.785Z,93.57
2018-11-22T21:59:54.267Z,92.82
2018-11-22T22:02:22.588Z,92.74
2018-11-22T22:05:10.239Z,92.91
2018-11-22T22:07:57.512Z,92.88
2018-11-22T22:10:25.877Z,93.07
2018-11-22T22:12:54.678Z,92.58
2018-11-22T22:15:24.836Z,93.36
2018-11-22T22:20:47.188Z,94.77
2018-11-22T22:23:15.961Z,94.59
2018-11-22T22:25:44.608Z,94.63
2018-11-22T22:28:13.081Z,94.61
2018-11-22T22:31:00.500Z,94.49
2018-11-22T22:33:29.190Z,94.57
2018-11-22T22:35:57.577Z,95.59
2018-11-22T22:38:44.697Z,96.47
2018-11-22T22:41:32.258Z,96.28
2018-11-22T22:44:19.556Z,96.36
2018-11-22T22:46:47.900Z,97.50
2018-11-22T22:49:35.141Z,96.83
2018-11-22T22:52:22.786Z,96.95
2018-11-22T22:54:51.215Z,96.73
2018-11-22T22:57:38.559Z,96.25
2018-11-22T23:00:44.622Z,96.13
2018-11-22T23:03:31.893Z,96.79
2018-11-22T23:06:00.319Z,96.94
2018-11-22T23:08:29.284Z,96.80
2018-11-22T23:11:03.784Z,96.79
2018-11-22T23:13:32.389Z,97.19
2018-11-22T23:16:01.811Z,96.92
2018-11-22T23:18:49.161Z,97.38
2018-11-22T23:21:17.809Z,97.10
2018-11-22T23:26:39.762Z,97.28
2018-11-22T23:29:10.683Z,97.39
2018-11-22T23:31:38.339Z,97.64
2018-11-22T23:34:06.738Z,98.15
2018-11-22T23:36:35.583Z,97.61
2018-11-22T23:39:23.463Z,98.20
2018-11-22T23:41:52.575Z,98.91
2018-11-22T23:44:29.244Z,98.26
2018-11-22T23:46:57.937Z,98.05
2018-11-22T23:49:45.275Z,98.36
2018-11-22T23:52:13.771Z,98.55
2018-11-22T23:54:42.137Z,98.74
2018-11-22T23:57:10.812Z,98.67
2018-11-22T23:59:39.857Z,98.31
